createdAt,value
2017-12-19T00:01:50.804Z,20.73
2017-12-19T00:04:18.240Z,19.43
2017-12-19T00:06:45.690Z,18.27
2017-12-19T00:09:13.130Z,19.57
2017-12-19T00:11:40.565Z,19.33
2017-12-19T00:14:08.032Z,20.87
2017-12-19T00:16:35.467Z,20.63
2017-12-19T00:19:03.287Z,21.43
2017-12-19T00:21:30.735Z,20.53
2017-12-19T00:23:58.168Z,21.23
2017-12-19T00:26:26.417Z,21.13
2017-12-19T00:28:54.269Z,20.77
2017-12-19T00:31:21.691Z,20.00
2017-12-19T00:33:49.126Z,23.77
2017-12-19T00:36:16.584Z,22.70
2017-12-19T00:38:44.020Z,20.30
2017-12-19T00:41:11.451Z,19.87
2017-12-19T00:43:39.277Z,20.47
2017-12-19T00:46:06.943Z,21.20
2017-12-19T00:48:34.367Z,20.20
2017-12-19T00:51:01.800Z,20.30
2017-12-19T00:53:29.264Z,18.87
2017-12-19T00:55:56.698Z,19.87
2017-12-19T00:58:24.532Z,19.10
2017-12-19T01:00:51.964Z,18.40
2017-12-19T01:03:19.396Z,21.17
2017-12-19T01:05:46.828Z,21.03
2017-12-19T01:08:15.046Z,21.97
2017-12-19T01:10:42.472Z,21.67
2017-12-19T01:13:09.908Z,21.43
2017-12-19T01:15:37.748Z,20.93
2017-12-19T01:18:05.198Z,21.47
2017-12-19T01:20:32.623Z,21.10
2017-12-19T01:23:00.084Z,21.60
2017-12-19T01:25:27.519Z,20.47
2017-12-19T01:27:54.949Z,23.60
2017-12-19T01:30:22.784Z,22.63
2017-12-19T01:32:50.224Z,23.70
2017-12-19T01:35:17.767Z,23.57
2017-12-19T01:37:45.196Z,22.43
2017-12-19T01:40:12.636Z,22.70
2017-12-19T01:42:40.464Z,23.27
2017-12-19T01:45:07.904Z,21.80
2017-12-19T01:47:35.619Z,23.40
2017-12-19T01:50:03.056Z,20.57
2017-12-19T01:52:30.884Z,22.63
2017-12-19T01:54:58.336Z,23.70
2017-12-19T01:57:25.768Z,23.13
2017-12-19T01:59:53.200Z,19.83
2017-12-19T02:02:21.026Z,20.60
2017-12-19T02:04:48.468Z,24.33
2017-12-19T02:07:15.895Z,22.27
2017-12-19T02:09:43.440Z,23.07
2017-12-19T02:12:10.868Z,24.50
2017-12-19T02:14:38.696Z,22.77
2017-12-19T02:17:06.136Z,24.30
2017-12-19T02:19:33.844Z,22.47
2017-12-19T02:22:01.275Z,24.20
2017-12-19T02:24:28.716Z,22.77
2017-12-19T02:26:56.180Z,25.47
2017-12-19T02:29:23.607Z,24.07
2017-12-19T02:31:51.041Z,24.77
2017-12-19T02:34:18.491Z,23.20
2017-12-19T02:36:45.940Z,23.40
2017-12-19T02:39:13.773Z,25.80
2017-12-19T02:41:41.512Z,25.33
2017-12-19T02:44:08.944Z,24.73
2017-12-19T02:46:36.380Z,23.57
2017-12-19T02:49:04.229Z,24.30
2017-12-19T02:51:31.660Z,24.77
2017-12-19T02:53:59.091Z,22.73
2017-12-19T02:56:26.524Z,24.37
2017-12-19T02:58:53.960Z,22.20
2017-12-19T03:01:21.792Z,23.60
2017-12-19T03:03:49.536Z,24.23
2017-12-19T03:06:16.964Z,25.20
2017-12-19T03:08:44.385Z,24.80
2017-12-19T03:11:12.228Z,23.20
2017-12-19T03:13:39.660Z,24.60
2017-12-19T03:16:07.106Z,22.37
2017-12-19T03:18:34.560Z,23.70
2017-12-19T03:21:02.004Z,23.27
2017-12-19T03:23:29.440Z,22.97
2017-12-19T03:25:57.296Z,24.80
2017-12-19T03:28:25.127Z,24.33
2017-12-19T03:30:52.557Z,22.97
2017-12-19T03:33:19.992Z,25.47
2017-12-19T03:35:47.452Z,24.60
2017-12-19T03:38:14.883Z,23.23
2017-12-19T03:40:42.711Z,24.73
2017-12-19T03:43:10.152Z,22.80
2017-12-19T03:45:37.581Z,24.20
2017-12-19T03:48:05.008Z,26.40
2017-12-19T03:50:32.836Z,24.50
2017-12-19T03:53:00.268Z,23.63
2017-12-19T03:55:27.699Z,26.10
2017-12-19T03:57:55.156Z,23.00
2017-12-19T04:00:22.587Z,24.50
2017-12-19T04:02:50.421Z,22.73
2017-12-19T04:05:17.860Z,23.43
2017-12-19T04:07:45.293Z,23.30
2017-12-19T04:10:12.743Z,24.70
2017-12-19T04:12:40.177Z,22.40
2017-12-19T04:15:08.010Z,23.00
2017-12-19T04:17:35.464Z,22.67
2017-12-19T04:20:02.896Z,21.60
2017-12-19T04:22:30.320Z,21.83
2017-12-19T04:24:58.108Z,22.10
2017-12-19T04:27:25.545Z,22.80
2017-12-19T04:29:52.983Z,24.80
2017-12-19T04:32:20.820Z,24.80
2017-12-19T04:34:48.253Z,24.70
2017-12-19T04:37:15.676Z,20.80
2017-12-19T04:39:43.118Z,22.73
2017-12-19T04:42:10.546Z,24.83
2017-12-19T04:44:37.978Z,22.37
2017-12-19T04:47:05.442Z,20.63
2017-12-19T04:49:32.878Z,22.20
2017-12-19T04:52:00.310Z,21.60
2017-12-19T04:54:27.766Z,21.70
2017-12-19T04:56:55.216Z,22.17
2017-12-19T04:59:22.647Z,23.77
2017-12-19T05:01:50.493Z,22.87
2017-12-19T05:04:17.924Z,21.40
2017-12-19T05:06:45.361Z,21.87
2017-12-19T05:09:12.820Z,23.23
2017-12-19T05:11:40.249Z,23.63
2017-12-19T05:14:07.680Z,25.53
2017-12-19T05:16:35.523Z,22.20
2017-12-19T05:19:02.953Z,23.47
2017-12-19T05:21:30.386Z,24.07
2017-12-19T05:23:57.865Z,24.20
2017-12-19T05:26:25.283Z,23.40
2017-12-19T05:28:52.713Z,23.83
2017-12-19T05:31:20.148Z,26.17
2017-12-19T05:33:47.590Z,25.20
2017-12-19T05:36:15.039Z,24.87
2017-12-19T05:38:42.474Z,22.60
2017-12-19T05:41:09.919Z,25.60
2017-12-19T05:43:37.381Z,22.67
2017-12-19T05:46:04.804Z,23.40
2017-12-19T05:48:32.627Z,24.60
2017-12-19T05:51:00.376Z,25.87
2017-12-19T05:53:27.819Z,43.33
2017-12-19T05:55:55.254Z,23.30
2017-12-19T05:58:22.699Z,30.60
2017-12-19T06:00:50.127Z,25.93
2017-12-19T06:03:17.565Z,22.27
2017-12-19T06:05:45.023Z,25.47
2017-12-19T06:08:12.455Z,22.17
2017-12-19T06:10:39.893Z,20.60
2017-12-19T06:13:07.346Z,22.60
2017-12-19T06:15:34.774Z,19.37
2017-12-19T06:18:02.603Z,23.13
2017-12-19T06:20:30.061Z,20.70
2017-12-19T06:22:57.495Z,20.33
2017-12-19T06:25:24.929Z,19.70
2017-12-19T06:27:52.365Z,22.67
2017-12-19T06:30:20.207Z,20.67
2017-12-19T06:32:47.635Z,19.83
2017-12-19T06:35:15.073Z,21.43
2017-12-19T06:37:42.523Z,19.77
2017-12-19T06:40:09.960Z,19.80
2017-12-19T06:42:37.387Z,18.33
2017-12-19T06:45:05.100Z,19.97
2017-12-19T06:47:32.532Z,24.93
2017-12-19T06:49:59.959Z,20.70
2017-12-19T06:52:27.817Z,19.13
2017-12-19T06:54:55.248Z,20.53
2017-12-19T06:57:22.687Z,19.63
2017-12-19T06:59:50.135Z,21.23
2017-12-19T07:02:17.560Z,19.13
2017-12-19T07:04:44.992Z,18.20
2017-12-19T07:07:12.852Z,19.37
2017-12-19T07:09:40.292Z,19.87
2017-12-19T07:12:07.716Z,18.33
2017-12-19T07:14:35.189Z,18.50
2017-12-19T07:17:02.625Z,18.43
2017-12-19T07:19:30.061Z,20.37
2017-12-19T07:21:57.495Z,18.43
2017-12-19T07:24:25.345Z,18.73
2017-12-19T07:26:52.772Z,18.70
2017-12-19T07:29:20.212Z,17.30
2017-12-19T07:31:47.748Z,16.30
2017-12-19T07:34:15.181Z,22.67
2017-12-19T07:36:43.013Z,18.60
2017-12-19T07:39:10.757Z,17.33
2017-12-19T07:41:38.189Z,17.43
2017-12-19T07:44:05.622Z,15.30
2017-12-19T07:46:33.478Z,16.37
2017-12-19T07:49:00.911Z,17.33
2017-12-19T07:51:28.344Z,14.80
2017-12-19T07:53:55.784Z,15.27
2017-12-19T07:56:23.221Z,15.93
2017-12-19T07:58:50.675Z,16.10
2017-12-19T08:01:18.118Z,15.60
2017-12-19T08:03:45.937Z,14.87
2017-12-19T08:06:13.678Z,16.60
2017-12-19T08:08:41.111Z,16.23
2017-12-19T08:11:08.544Z,17.43
2017-12-19T08:13:36.375Z,15.60
2017-12-19T08:16:03.907Z,14.10
2017-12-19T08:18:31.333Z,15.07
2017-12-19T08:20:58.761Z,16.43
2017-12-19T08:23:26.202Z,14.60
2017-12-19T08:25:53.624Z,15.87
2017-12-19T08:28:21.059Z,13.93
2017-12-19T08:30:48.510Z,13.63
2017-12-19T08:33:15.936Z,17.87
2017-12-19T08:35:43.774Z,13.83
2017-12-19T08:38:11.220Z,15.87
2017-12-19T08:40:38.649Z,13.23
2017-12-19T08:43:06.088Z,14.43
2017-12-19T08:45:33.829Z,12.67
2017-12-19T08:48:01.256Z,14.50
2017-12-19T08:50:28.692Z,15.47
2017-12-19T08:52:56.140Z,14.70
2017-12-19T08:55:23.580Z,14.53
2017-12-19T08:57:51.013Z,14.13
2017-12-19T09:00:18.860Z,13.60
2017-12-19T09:02:46.292Z,14.77
2017-12-19T09:05:13.722Z,14.33
2017-12-19T09:07:41.487Z,14.20
2017-12-19T09:10:08.925Z,13.50
2017-12-19T09:12:36.356Z,15.57
2017-12-19T09:15:04.201Z,15.23
2017-12-19T09:17:31.633Z,15.33
2017-12-19T09:19:59.060Z,15.63
2017-12-19T09:22:26.501Z,14.37
2017-12-19T09:24:53.928Z,15.63
2017-12-19T09:27:21.769Z,14.70
2017-12-19T09:29:49.205Z,15.13
2017-12-19T09:32:16.631Z,14.63
2017-12-19T09:34:44.088Z,16.50
2017-12-19T09:37:11.520Z,12.80
2017-12-19T09:39:39.348Z,12.53
2017-12-19T09:42:06.809Z,16.07
2017-12-19T09:44:34.245Z,15.87
2017-12-19T09:47:01.672Z,13.53
2017-12-19T09:49:29.118Z,13.50
2017-12-19T09:51:56.548Z,15.20
2017-12-19T09:54:24.376Z,14.47
2017-12-19T09:56:51.822Z,13.50
2017-12-19T09:59:19.252Z,12.60
2017-12-19T10:01:46.686Z,13.03
2017-12-19T10:04:14.508Z,13.27
2017-12-19T10:06:41.944Z,13.47
2017-12-19T10:09:09.380Z,13.07
2017-12-19T10:11:36.807Z,14.40
2017-12-19T10:14:04.641Z,15.13
2017-12-19T10:16:32.086Z,15.10
2017-12-19T10:18:59.532Z,13.90
2017-12-19T10:21:26.964Z,15.10
2017-12-19T10:23:54.395Z,15.13
2017-12-19T10:26:22.515Z,15.50
2017-12-19T10:28:49.943Z,17.00
2017-12-19T10:31:17.372Z,16.03
2017-12-19T10:33:45.211Z,16.20
2017-12-19T10:36:12.690Z,14.40
2017-12-19T10:38:40.108Z,15.07
2017-12-19T10:41:07.552Z,15.53
2017-12-19T10:43:34.983Z,15.27
2017-12-19T10:46:02.421Z,12.90
2017-12-19T10:48:30.275Z,14.00
2017-12-19T10:50:58.107Z,13.30
2017-12-19T10:53:25.538Z,13.10
2017-12-19T10:55:53.014Z,13.57
2017-12-19T10:58:20.468Z,14.70
2017-12-19T11:00:47.905Z,13.93
2017-12-19T11:03:15.416Z,15.00
2017-12-19T11:05:43.249Z,14.47
2017-12-19T11:08:10.689Z,14.87
2017-12-19T11:10:38.145Z,15.30
2017-12-19T11:13:05.609Z,14.70
2017-12-19T11:15:33.090Z,13.20
2017-12-19T11:18:00.512Z,12.70
2017-12-19T11:20:27.982Z,13.20
2017-12-19T11:22:55.467Z,12.93
2017-12-19T11:25:23.324Z,12.20
2017-12-19T11:27:50.768Z,14.43
2017-12-19T11:30:18.277Z,11.17
2017-12-19T11:32:45.748Z,13.13
2017-12-19T11:35:13.185Z,12.57
2017-12-19T11:37:40.612Z,13.37
2017-12-19T11:40:08.554Z,12.70
2017-12-19T11:42:36.015Z,11.80
2017-12-19T11:45:03.460Z,11.97
2017-12-19T11:47:30.907Z,11.30
2017-12-19T11:49:58.344Z,11.93
2017-12-19T11:52:25.772Z,12.27
2017-12-19T11:54:53.220Z,11.80
2017-12-19T11:57:20.659Z,12.37
2017-12-19T11:59:48.484Z,11.80
2017-12-19T12:02:16.178Z,12.57
2017-12-19T12:04:43.636Z,12.23
2017-12-19T12:07:11.463Z,11.13
2017-12-19T12:09:38.905Z,12.57
2017-12-19T12:12:06.359Z,11.20
2017-12-19T12:14:33.802Z,10.60
2017-12-19T12:17:01.228Z,12.73
2017-12-19T12:19:29.342Z,12.53
2017-12-19T12:21:56.767Z,11.10
2017-12-19T12:24:24.201Z,10.37
2017-12-19T12:26:52.052Z,12.30
2017-12-19T12:29:19.529Z,11.80
2017-12-19T12:31:46.926Z,12.20
2017-12-19T12:34:14.390Z,10.07
2017-12-19T12:36:41.827Z,10.03
2017-12-19T12:39:09.261Z,12.80
2017-12-19T12:41:36.704Z,32.53
2017-12-19T12:44:04.526Z,12.73
2017-12-19T12:46:31.962Z,11.70
2017-12-19T12:49:00.329Z,9.97
2017-12-19T12:51:27.756Z,10.50
2017-12-19T12:53:55.184Z,9.27
2017-12-19T12:56:22.632Z,9.50
2017-12-19T12:58:50.068Z,9.37
2017-12-19T13:01:17.511Z,7.23
2017-12-19T13:03:45.067Z,7.37
2017-12-19T13:06:12.501Z,6.83
2017-12-19T13:08:39.928Z,6.40
2017-12-19T13:11:08.057Z,6.30
2017-12-19T13:13:35.498Z,6.10
2017-12-19T13:16:02.927Z,7.20
2017-12-19T13:18:30.632Z,6.50
2017-12-19T13:20:58.115Z,6.57
2017-12-19T13:23:25.488Z,7.40
2017-12-19T13:25:53.316Z,6.70
2017-12-19T13:28:20.768Z,6.93
2017-12-19T13:30:48.211Z,8.00
2017-12-19T13:33:15.655Z,8.20
2017-12-19T13:35:43.239Z,9.30
2017-12-19T13:38:10.676Z,7.90
2017-12-19T13:40:38.122Z,8.20
2017-12-19T13:43:05.551Z,9.10
2017-12-19T13:45:32.979Z,9.47
2017-12-19T13:48:00.706Z,10.03
2017-12-19T13:50:28.134Z,9.50
2017-12-19T13:52:55.567Z,10.53
2017-12-19T13:55:23.416Z,10.13
2017-12-19T13:57:51.249Z,10.93
2017-12-19T14:00:18.672Z,9.60
2017-12-19T14:02:46.116Z,10.87
2017-12-19T14:05:13.563Z,11.60
2017-12-19T14:07:40.997Z,11.97
2017-12-19T14:10:08.844Z,11.90
2017-12-19T14:12:36.279Z,12.33
2017-12-19T14:15:03.731Z,12.37
2017-12-19T14:17:31.488Z,13.80
2017-12-19T14:19:58.926Z,13.07
2017-12-19T14:22:26.359Z,11.67
2017-12-19T14:24:53.801Z,13.27
2017-12-19T14:27:21.628Z,12.27
2017-12-19T14:29:49.056Z,13.80
2017-12-19T14:32:16.527Z,12.53
2017-12-19T14:34:43.955Z,13.60
2017-12-19T14:37:11.383Z,14.13
2017-12-19T14:39:39.499Z,12.87
2017-12-19T14:42:06.932Z,11.70
2017-12-19T14:44:34.360Z,13.17
2017-12-19T14:47:02.257Z,13.20
2017-12-19T14:49:29.688Z,11.97
2017-12-19T14:51:57.512Z,13.10
2017-12-19T14:54:25.060Z,13.03
2017-12-19T14:56:52.506Z,13.07
2017-12-19T14:59:19.930Z,14.70
2017-12-19T15:01:48.225Z,14.63
2017-12-19T15:04:15.704Z,15.80
2017-12-19T15:06:43.247Z,16.47
2017-12-19T15:09:10.683Z,14.17
2017-12-19T15:11:38.122Z,15.60
2017-12-19T15:14:05.957Z,14.97
2017-12-19T15:16:33.412Z,14.30
2017-12-19T15:19:00.838Z,15.60
2017-12-19T15:21:28.284Z,13.60
2017-12-19T15:23:55.729Z,16.10
2017-12-19T15:26:23.161Z,15.27
2017-12-19T15:28:51.013Z,14.77
2017-12-19T15:31:19.339Z,14.20
2017-12-19T15:33:46.776Z,15.43
2017-12-19T15:36:14.204Z,14.40
2017-12-19T15:38:42.319Z,15.40
2017-12-19T15:41:09.774Z,13.50
2017-12-19T15:43:37.196Z,12.50
2017-12-19T15:46:04.986Z,13.30
2017-12-19T15:48:32.422Z,12.90
2017-12-19T15:50:59.848Z,14.70
2017-12-19T15:53:27.693Z,14.17
2017-12-19T15:55:55.133Z,13.20
2017-12-19T15:58:22.576Z,12.50
2017-12-19T16:00:50.196Z,13.80
2017-12-19T16:03:18.025Z,14.43
2017-12-19T16:05:45.455Z,13.20
2017-12-19T16:08:13.120Z,12.80
2017-12-19T16:10:40.569Z,13.13
2017-12-19T16:13:07.987Z,12.70
2017-12-19T16:15:35.784Z,11.77
2017-12-19T16:18:03.249Z,10.90
2017-12-19T16:20:30.877Z,11.30
2017-12-19T16:22:58.683Z,11.60
2017-12-19T16:25:26.128Z,11.57
2017-12-19T16:27:53.589Z,11.57
2017-12-19T16:30:21.022Z,12.40
2017-12-19T16:32:48.450Z,12.30
2017-12-19T16:35:15.917Z,13.17
2017-12-19T16:37:43.352Z,13.10
2017-12-19T16:40:11.181Z,13.37
2017-12-19T16:42:38.648Z,39.43
2017-12-19T16:45:06.081Z,12.90
2017-12-19T16:47:33.512Z,12.50
2017-12-19T16:50:01.001Z,12.57
2017-12-19T16:52:28.432Z,16.07
2017-12-19T16:54:55.876Z,15.00
2017-12-19T16:57:23.330Z,13.13
2017-12-19T16:59:50.756Z,16.20
2017-12-19T17:02:18.587Z,14.80
2017-12-19T17:04:46.055Z,15.73
2017-12-19T17:07:13.491Z,13.70
2017-12-19T17:09:40.929Z,13.03
2017-12-19T17:12:08.384Z,14.07
2017-12-19T17:14:35.815Z,11.33
2017-12-19T17:17:03.249Z,12.73
2017-12-19T17:19:31.083Z,14.23
2017-12-19T17:21:58.517Z,12.37
2017-12-19T17:24:26.928Z,13.10
2017-12-19T17:26:54.388Z,13.27
2017-12-19T17:29:22.212Z,17.90
2017-12-19T17:31:49.651Z,13.20
2017-12-19T17:34:17.084Z,13.47
2017-12-19T17:36:44.531Z,12.30
2017-12-19T17:39:12.360Z,13.53
2017-12-19T17:41:39.797Z,14.93
2017-12-19T17:44:07.252Z,15.77
2017-12-19T17:46:34.699Z,12.67
2017-12-19T17:49:02.149Z,12.57
2017-12-19T17:51:29.569Z,12.60
2017-12-19T17:53:57.006Z,13.30
2017-12-19T17:56:24.827Z,14.40
2017-12-19T17:58:52.285Z,13.37
2017-12-19T18:01:19.726Z,12.67
2017-12-19T18:03:47.145Z,14.93
2017-12-19T18:06:15.275Z,13.50
2017-12-19T18:08:42.716Z,13.87
2017-12-19T18:11:10.143Z,19.53
2017-12-19T18:13:37.595Z,13.93
2017-12-19T18:16:05.049Z,14.53
2017-12-19T18:18:32.486Z,14.40
2017-12-19T18:21:01.225Z,15.87
2017-12-19T18:23:28.648Z,16.97
2017-12-19T18:25:56.080Z,17.03
2017-12-19T18:28:23.931Z,16.90
2017-12-19T18:30:51.398Z,15.60
2017-12-19T18:33:18.811Z,17.23
2017-12-19T18:35:46.259Z,17.97
2017-12-19T18:38:13.684Z,18.63
2017-12-19T18:40:41.124Z,19.70
2017-12-19T18:43:08.954Z,21.00
2017-12-19T18:45:36.384Z,19.20
2017-12-19T18:48:04.148Z,22.73
2017-12-19T18:50:31.594Z,28.43
2017-12-19T18:52:59.028Z,21.00
2017-12-19T18:55:26.467Z,23.17
2017-12-19T18:57:54.370Z,24.00
2017-12-19T19:00:21.783Z,22.83
2017-12-19T19:02:49.618Z,23.60
2017-12-19T19:05:17.044Z,24.50
2017-12-19T19:07:44.813Z,23.77
2017-12-19T19:10:12.258Z,25.10
2017-12-19T19:12:39.725Z,21.80
2017-12-19T19:15:07.155Z,35.70
2017-12-19T19:17:34.580Z,31.03
2017-12-19T19:20:02.437Z,27.03
2017-12-19T19:22:30.135Z,26.13
2017-12-19T19:24:57.592Z,26.73
2017-12-19T19:27:25.019Z,23.93
2017-12-19T19:29:52.885Z,25.27
2017-12-19T19:32:20.787Z,26.20
2017-12-19T19:37:22.077Z,26.57
2017-12-19T19:39:49.516Z,27.50
2017-12-19T19:42:16.952Z,27.93
2017-12-19T19:44:44.400Z,28.27
2017-12-19T19:47:11.869Z,27.40
2017-12-19T19:49:39.295Z,28.87
2017-12-19T19:52:06.724Z,29.80
2017-12-19T19:54:34.160Z,28.57
2017-12-19T19:57:01.596Z,34.10
2017-12-19T19:59:29.305Z,28.33
2017-12-19T20:01:57.128Z,23.87
2017-12-19T20:04:24.565Z,29.63
2017-12-19T20:06:52.004Z,27.80
2017-12-19T20:09:19.475Z,28.10
2017-12-19T20:11:47.014Z,30.70
2017-12-19T20:14:14.460Z,28.67
2017-12-19T20:16:41.898Z,24.53
2017-12-19T20:19:09.765Z,26.97
2017-12-19T20:21:37.584Z,26.83
2017-12-19T20:24:05.448Z,24.80
2017-12-19T20:26:32.872Z,24.63
2017-12-19T20:29:00.296Z,23.00
2017-12-19T20:31:28.242Z,25.90
2017-12-19T20:33:55.712Z,28.03
2017-12-19T20:36:23.151Z,23.57
2017-12-19T20:38:50.577Z,23.97
2017-12-19T20:41:18.134Z,22.63
2017-12-19T20:43:45.576Z,24.87
2017-12-19T20:46:13.003Z,20.80
2017-12-19T20:48:40.845Z,20.33
2017-12-19T20:51:08.362Z,21.30
2017-12-19T20:53:35.781Z,21.57
2017-12-19T20:56:03.638Z,21.23
2017-12-19T20:58:31.087Z,21.90
2017-12-19T21:00:58.918Z,19.87
2017-12-19T21:03:26.475Z,20.13
2017-12-19T21:05:53.912Z,23.83
2017-12-19T21:08:21.353Z,22.10
2017-12-19T21:10:48.796Z,21.27
2017-12-19T21:13:16.592Z,20.97
2017-12-19T21:15:44.033Z,22.00
2017-12-19T21:18:11.468Z,22.50
2017-12-19T21:20:38.916Z,40.33
2017-12-19T21:23:06.365Z,78.97
2017-12-19T21:25:34.183Z,22.90
2017-12-19T21:28:01.941Z,20.03
2017-12-19T21:30:29.372Z,21.30
2017-12-19T21:32:56.809Z,21.70
2017-12-19T21:35:24.253Z,22.57
2017-12-19T21:37:52.085Z,22.00
2017-12-19T21:40:19.531Z,21.17
2017-12-19T21:45:10.615Z,21.90
2017-12-19T21:47:38.041Z,22.90
2017-12-19T21:50:05.872Z,22.40
2017-12-19T21:52:33.327Z,20.43
2017-12-19T21:55:00.761Z,19.30
2017-12-19T21:57:28.189Z,20.97
2017-12-19T21:59:55.886Z,23.17
2017-12-19T22:02:23.324Z,20.80
2017-12-19T22:04:50.747Z,20.97
2017-12-19T22:07:18.583Z,38.50
2017-12-19T22:09:46.021Z,18.03
2017-12-19T22:12:13.452Z,20.43
2017-12-19T22:14:40.888Z,19.63
2017-12-19T22:17:08.329Z,21.23
2017-12-19T22:19:36.153Z,21.10
2017-12-19T22:22:03.584Z,18.53
2017-12-19T22:24:31.029Z,17.50
2017-12-19T22:26:58.807Z,20.43
2017-12-19T22:29:26.241Z,18.10
2017-12-19T22:31:53.664Z,19.60
2017-12-19T22:34:21.520Z,19.00
2017-12-19T22:36:48.948Z,19.17
2017-12-19T22:39:16.383Z,19.43
2017-12-19T22:41:43.824Z,19.50
2017-12-19T22:44:11.280Z,18.53
2017-12-19T22:46:38.712Z,17.70
2017-12-19T22:49:06.539Z,18.53
2017-12-19T22:51:33.992Z,18.80
2017-12-19T22:54:01.431Z,18.37
2017-12-19T22:56:28.861Z,19.23
2017-12-19T22:58:56.399Z,18.33
2017-12-19T23:01:24.229Z,18.97
2017-12-19T23:03:51.660Z,17.90
2017-12-19T23:06:19.090Z,15.10
2017-12-19T23:08:46.531Z,15.60
2017-12-19T23:11:14.387Z,18.53
2017-12-19T23:13:42.213Z,17.27
2017-12-19T23:16:09.644Z,17.30
2017-12-19T23:18:37.932Z,18.33
2017-12-19T23:21:05.381Z,16.90
2017-12-19T23:23:32.793Z,16.23
2017-12-19T23:26:00.622Z,18.30
2017-12-19T23:28:28.051Z,15.17
2017-12-19T23:30:55.508Z,17.37
2017-12-19T23:33:22.941Z,18.80
2017-12-19T23:35:50.371Z,16.83
2017-12-19T23:38:17.819Z,16.20
2017-12-19T23:40:45.650Z,16.97
2017-12-19T23:43:13.088Z,15.97
2017-12-19T23:45:40.528Z,18.57
2017-12-19T23:48:07.961Z,16.53
2017-12-19T23:50:35.797Z,16.37
2017-12-19T23:53:03.328Z,16.33
2017-12-19T23:55:30.756Z,15.13
2017-12-19T23:57:58.188Z,15.90
